createdAt,value
2019-04-14T00:01:10.852Z,58.20
2019-04-14T00:03:45.442Z,58.20
2019-04-14T00:06:18.104Z,58.10
2019-04-14T00:08:50.249Z,58.00
2019-04-14T00:11:23.327Z,58.10
2019-04-14T00:13:56.653Z,58.00
2019-04-14T00:16:29.188Z,58.00
2019-04-14T00:19:02.299Z,58.20
2019-04-14T00:21:34.744Z,58.00
2019-04-14T00:24:07.427Z,57.90
2019-04-14T00:26:40.219Z,57.80
2019-04-14T00:29:13.066Z,57.90
2019-04-14T00:31:45.528Z,57.50
2019-04-14T00:34:18.866Z,57.40
2019-04-14T00:36:52.348Z,57.50
2019-04-14T00:39:27.198Z,57.90
2019-04-14T00:42:03.350Z,57.70
2019-04-14T00:44:36.498Z,57.30
2019-04-14T00:47:11.833Z,57.10
2019-04-14T00:49:46.162Z,57.20
2019-04-14T00:52:18.968Z,57.10
2019-04-14T00:54:52.033Z,57.20
2019-04-14T00:57:24.818Z,57.30
2019-04-14T00:59:57.322Z,57.10
2019-04-14T01:02:29.729Z,57.10
2019-04-14T01:05:02.555Z,56.90
2019-04-14T01:07:34.882Z,57.00
2019-04-14T01:10:08.538Z,56.90
2019-04-14T01:12:41.041Z,56.90
2019-04-14T01:15:13.719Z,57.50
2019-04-14T01:17:46.213Z,57.60
2019-04-14T01:20:18.925Z,57.00
2019-04-14T01:22:51.290Z,56.60
2019-04-14T01:25:23.912Z,56.50
2019-04-14T01:27:56.226Z,56.40
2019-04-14T01:30:28.412Z,56.50
2019-04-14T01:33:01.096Z,56.60
2019-04-14T01:35:33.555Z,56.80
2019-04-14T01:38:05.942Z,56.60
2019-04-14T01:40:38.771Z,56.80
2019-04-14T01:43:10.745Z,56.00
2019-04-14T01:45:42.731Z,56.40
2019-04-14T01:48:14.962Z,56.00
2019-04-14T01:50:49.584Z,56.10
2019-04-14T01:53:23.320Z,55.80
2019-04-14T01:55:56.994Z,55.60
2019-04-14T01:58:30.378Z,55.80
2019-04-14T02:01:04.092Z,55.80
2019-04-14T02:03:36.623Z,55.50
2019-04-14T02:06:09.286Z,55.30
2019-04-14T02:08:41.563Z,55.30
2019-04-14T02:11:13.873Z,55.00
2019-04-14T02:13:46.454Z,55.20
2019-04-14T02:16:29.161Z,55.00
2019-04-14T02:18:54.904Z,55.30
2019-04-14T02:21:25.976Z,54.80
2019-04-14T02:23:58.439Z,54.70
2019-04-14T02:26:31.079Z,54.30
2019-04-14T02:29:03.618Z,53.70
2019-04-14T02:32:03.572Z,53.40
2019-04-14T02:37:10.857Z,53.70
2019-04-14T02:39:46.741Z,53.80
2019-04-14T02:47:45.467Z,53.10
2019-04-14T02:49:56.152Z,52.60
2019-04-14T02:52:35.561Z,52.50
2019-04-14T02:55:25.241Z,52.50
2019-04-14T02:57:47.903Z,52.10
2019-04-14T03:02:48.675Z,51.50
2019-04-14T03:05:28.498Z,51.40
2019-04-14T03:07:59.876Z,51.30
2019-04-14T03:10:51.911Z,51.10
2019-04-14T03:13:29.250Z,50.80
2019-04-14T03:16:02.264Z,50.80
2019-04-14T03:18:38.197Z,50.30
2019-04-14T03:21:13.663Z,50.10
2019-04-14T03:23:49.875Z,50.50
2019-04-14T03:26:19.775Z,49.80
2019-04-14T03:28:51.422Z,50.20
2019-04-14T03:39:33.459Z,49.40
2019-04-14T03:41:45.110Z,49.20
2019-04-14T03:44:37.604Z,49.20
2019-04-14T03:46:55.456Z,48.90
2019-04-14T03:51:57.778Z,48.60
2019-04-14T03:54:34.977Z,48.50
2019-04-14T03:56:49.321Z,48.40
2019-04-14T03:59:21.994Z,48.20
2019-04-14T04:02:14.006Z,47.90
2019-04-14T04:04:46.694Z,47.40
2019-04-14T04:07:19.241Z,46.80
2019-04-14T04:09:54.133Z,46.50
2019-04-14T04:12:27.065Z,46.00
2019-04-14T04:15:00.009Z,45.50
2019-04-14T04:17:34.172Z,45.00
2019-04-14T04:20:09.122Z,45.30
2019-04-14T04:22:43.433Z,45.10
2019-04-14T04:25:18.206Z,45.40
2019-04-14T04:27:52.555Z,45.00
2019-04-14T04:30:27.537Z,44.10
2019-04-14T04:33:00.047Z,44.20
2019-04-14T04:35:32.665Z,44.20
2019-04-14T04:38:05.178Z,43.50
2019-04-14T04:40:57.176Z,43.30
2019-04-14T04:43:38.812Z,43.10
2019-04-14T04:46:11.361Z,43.00
2019-04-14T04:48:43.817Z,42.70
2019-04-14T04:51:18.212Z,42.40
2019-04-14T04:53:50.496Z,42.20
2019-04-14T04:56:23.251Z,42.10
2019-04-14T04:58:56.695Z,42.00
2019-04-14T05:01:29.603Z,41.60
2019-04-14T05:04:02.378Z,41.80
2019-04-14T05:06:37.835Z,41.20
2019-04-14T05:09:12.274Z,40.80
2019-04-14T05:11:46.879Z,40.20
2019-04-14T05:14:21.583Z,41.20
2019-04-14T05:16:54.925Z,40.50
2019-04-14T05:19:31.833Z,40.50
2019-04-14T05:22:00.669Z,39.80
2019-04-14T05:24:33.245Z,39.60
2019-04-14T05:27:05.750Z,39.50
2019-04-14T05:29:38.574Z,39.80
2019-04-14T05:32:10.904Z,39.70
2019-04-14T05:34:43.326Z,39.30
2019-04-14T05:37:16.070Z,39.50
2019-04-14T05:39:48.465Z,39.10
2019-04-14T05:42:25.160Z,38.50
2019-04-14T05:44:55.813Z,39.40
2019-04-14T05:47:28.381Z,38.60
2019-04-14T05:50:00.908Z,38.40
2019-04-14T05:52:33.912Z,37.80
2019-04-14T05:55:09.002Z,37.90
2019-04-14T05:57:41.651Z,37.50
2019-04-14T06:00:17.248Z,37.30
2019-04-14T06:02:59.411Z,37.50
2019-04-14T06:05:31.795Z,37.20
2019-04-14T06:08:04.017Z,37.50
2019-04-14T06:10:38.659Z,37.00
2019-04-14T06:13:11.901Z,37.10
2019-04-14T06:15:44.020Z,37.20
2019-04-14T06:18:16.190Z,37.40
2019-04-14T06:20:48.439Z,36.50
2019-04-14T06:23:20.435Z,37.30
2019-04-14T06:25:52.676Z,37.40
2019-04-14T06:28:24.827Z,37.30
2019-04-14T06:30:57.185Z,37.30
2019-04-14T06:33:30.584Z,37.20
2019-04-14T06:36:04.439Z,36.40
2019-04-14T06:38:37.730Z,36.80
2019-04-14T06:41:11.967Z,37.00
2019-04-14T06:43:49.162Z,36.10
2019-04-14T06:46:18.157Z,36.20
2019-04-14T06:48:50.198Z,36.40
2019-04-14T06:51:22.302Z,36.30
2019-04-14T06:53:54.558Z,36.10
2019-04-14T06:56:26.375Z,36.30
2019-04-14T06:58:58.310Z,35.90
2019-04-14T07:01:32.342Z,36.00
2019-04-14T07:04:04.356Z,35.90
2019-04-14T07:06:55.145Z,35.90
2019-04-14T07:09:27.546Z,35.60
2019-04-14T07:11:59.832Z,35.80
2019-04-14T07:14:32.195Z,36.00
2019-04-14T07:17:04.308Z,35.70
2019-04-14T07:19:36.620Z,35.40
2019-04-14T07:22:09.139Z,35.80
2019-04-14T07:24:40.794Z,35.20
2019-04-14T07:27:12.542Z,35.30
2019-04-14T07:29:46.205Z,35.10
2019-04-14T07:32:19.530Z,35.30
2019-04-14T07:34:53.405Z,35.80
2019-04-14T07:37:26.818Z,35.90
2019-04-14T07:40:00.613Z,35.50
2019-04-14T07:42:33.922Z,36.20
2019-04-14T07:45:08.437Z,35.40
2019-04-14T07:47:40.297Z,35.10
2019-04-14T07:50:15.295Z,34.80
2019-04-14T07:52:47.339Z,34.60
2019-04-14T07:55:21.944Z,34.80
2019-04-14T07:57:55.354Z,34.90
2019-04-14T08:00:29.253Z,34.70
2019-04-14T08:03:03.273Z,34.60
2019-04-14T08:05:36.879Z,34.40
2019-04-14T08:08:09.538Z,34.00
2019-04-14T08:10:41.732Z,34.50
2019-04-14T08:13:14.444Z,34.70
2019-04-14T08:15:46.601Z,34.70
2019-04-14T08:18:18.457Z,34.40
2019-04-14T08:20:50.643Z,34.20
2019-04-14T08:23:23.072Z,34.30
2019-04-14T08:25:55.194Z,35.60
2019-04-14T08:28:27.433Z,36.30
2019-04-14T08:30:59.660Z,38.50
2019-04-14T08:33:31.752Z,37.50
2019-04-14T08:36:04.311Z,34.90
2019-04-14T08:38:36.553Z,34.60
2019-04-14T08:41:08.568Z,35.60
2019-04-14T08:43:42.568Z,34.00
2019-04-14T08:46:16.546Z,34.50
2019-04-14T08:48:48.198Z,34.10
2019-04-14T08:51:21.994Z,33.00
2019-04-14T08:53:55.138Z,33.40
2019-04-14T08:56:29.024Z,33.70
2019-04-14T08:59:02.463Z,32.90
2019-04-14T09:01:54.749Z,32.80
2019-04-14T09:04:29.105Z,33.90
2019-04-14T09:07:11.581Z,33.30
2019-04-14T09:10:04.712Z,34.00
2019-04-14T09:12:38.324Z,34.10
2019-04-14T09:15:11.011Z,33.80
2019-04-14T09:17:46.404Z,33.30
2019-04-14T09:20:19.189Z,33.90
2019-04-14T09:22:51.245Z,33.80
2019-04-14T09:25:23.480Z,34.50
2019-04-14T09:27:55.446Z,34.00
2019-04-14T09:30:27.811Z,33.90
2019-04-14T09:32:59.847Z,34.20
2019-04-14T09:35:32.323Z,34.40
2019-04-14T09:38:04.786Z,33.90
2019-04-14T09:40:37.377Z,33.80
2019-04-14T09:43:10.355Z,34.40
2019-04-14T09:45:42.212Z,34.60
2019-04-14T09:48:14.010Z,35.00
2019-04-14T09:50:47.393Z,34.20
2019-04-14T09:53:19.469Z,33.80
2019-04-14T09:55:51.608Z,34.80
2019-04-14T09:58:24.561Z,34.70
2019-04-14T10:00:56.490Z,34.70
2019-04-14T10:03:30.569Z,34.30
2019-04-14T10:06:02.900Z,34.50
2019-04-14T10:08:53.970Z,34.70
2019-04-14T10:11:26.416Z,34.40
2019-04-14T10:13:58.425Z,34.20
2019-04-14T10:16:49.683Z,34.90
2019-04-14T10:19:21.760Z,33.90
2019-04-14T10:21:54.056Z,34.00
2019-04-14T10:24:26.904Z,34.20
2019-04-14T10:26:59.045Z,34.40
2019-04-14T10:29:51.139Z,35.40
2019-04-14T10:32:23.194Z,37.20
2019-04-14T10:35:14.347Z,37.60
2019-04-14T10:37:46.951Z,38.60
2019-04-14T10:40:18.821Z,38.50
2019-04-14T10:42:50.902Z,38.80
2019-04-14T10:45:23.448Z,38.80
2019-04-14T10:47:55.878Z,39.50
2019-04-14T10:50:31.132Z,39.80
2019-04-14T10:53:01.934Z,40.00
2019-04-14T10:55:33.786Z,40.40
2019-04-14T10:58:05.832Z,40.60
2019-04-14T11:00:38.479Z,41.10
2019-04-14T11:03:10.959Z,41.30
2019-04-14T11:05:45.359Z,41.80
2019-04-14T11:08:18.130Z,41.70
2019-04-14T11:10:50.962Z,42.00
2019-04-14T11:13:23.155Z,42.10
2019-04-14T11:15:55.488Z,42.60
2019-04-14T11:18:28.690Z,42.70
2019-04-14T11:21:00.617Z,42.90
2019-04-14T11:23:32.961Z,42.80
2019-04-14T11:26:05.579Z,43.30
2019-04-14T11:28:37.382Z,43.60
2019-04-14T11:31:10.081Z,43.80
2019-04-14T11:33:43.553Z,43.90
2019-04-14T11:36:17.762Z,43.90
2019-04-14T11:39:03.288Z,44.10
2019-04-14T11:41:35.429Z,44.50
2019-04-14T11:44:07.801Z,44.50
2019-04-14T11:46:40.876Z,44.40
2019-04-14T11:49:13.162Z,44.20
2019-04-14T11:51:55.237Z,44.70
2019-04-14T11:54:18.843Z,44.50
2019-04-14T11:56:51.203Z,44.60
2019-04-14T11:59:24.641Z,44.90
2019-04-14T12:01:58.612Z,44.90
2019-04-14T12:04:32.311Z,44.70
2019-04-14T12:07:05.991Z,44.30
2019-04-14T12:09:39.983Z,43.70
2019-04-14T12:12:12.529Z,43.20
2019-04-14T12:14:44.513Z,42.80
2019-04-14T12:17:16.204Z,43.00
2019-04-14T12:19:48.793Z,42.80
2019-04-14T12:22:20.895Z,43.00
2019-04-14T12:24:53.407Z,42.20
2019-04-14T12:27:25.918Z,42.50
2019-04-14T12:29:58.903Z,42.40
2019-04-14T12:32:32.827Z,42.70
2019-04-14T12:35:05.124Z,42.80
2019-04-14T12:37:37.189Z,42.10
2019-04-14T12:40:10.614Z,42.60
2019-04-14T12:42:43.827Z,42.70
2019-04-14T12:45:18.163Z,42.80
2019-04-14T12:47:51.683Z,42.80
2019-04-14T12:50:25.104Z,42.90
2019-04-14T12:52:58.251Z,43.40
2019-04-14T12:55:30.506Z,43.10
2019-04-14T12:58:03.819Z,43.30
2019-04-14T13:00:37.858Z,43.60
2019-04-14T13:03:10.116Z,43.60
2019-04-14T13:05:42.317Z,43.20
2019-04-14T13:08:14.793Z,43.70
2019-04-14T13:10:47.567Z,43.90
2019-04-14T13:13:39.923Z,44.10
2019-04-14T13:16:13.836Z,44.10
2019-04-14T13:18:46.492Z,43.90
2019-04-14T13:21:18.535Z,44.10
2019-04-14T13:23:50.788Z,44.10
2019-04-14T13:26:22.903Z,44.10
2019-04-14T13:28:54.616Z,45.20
2019-04-14T13:31:27.130Z,46.00
2019-04-14T13:34:00.313Z,46.40
2019-04-14T13:36:32.264Z,46.30
2019-04-14T13:39:06.167Z,45.80
2019-04-14T13:41:38.929Z,46.10
2019-04-14T13:44:17.629Z,46.90
2019-04-14T13:46:52.540Z,48.90
2019-04-14T13:49:27.734Z,50.30
2019-04-14T13:51:59.742Z,51.00
2019-04-14T13:54:51.284Z,52.10
2019-04-14T13:57:23.599Z,51.90
2019-04-14T13:59:55.378Z,54.30
2019-04-14T14:03:06.776Z,56.50
2019-04-14T14:05:39.776Z,58.40
2019-04-14T14:08:11.923Z,58.00
2019-04-14T14:10:43.872Z,59.50
2019-04-14T14:13:18.617Z,60.90
2019-04-14T14:15:51.773Z,62.20
2019-04-14T14:18:25.675Z,63.70
2019-04-14T14:20:59.551Z,63.90
2019-04-14T14:23:33.156Z,63.50
2019-04-14T14:26:06.371Z,64.90
2019-04-14T14:28:38.809Z,64.60
2019-04-14T14:31:11.078Z,65.40
2019-04-14T14:33:45.250Z,66.60
2019-04-14T14:36:16.858Z,65.80
2019-04-14T14:38:48.778Z,65.80
2019-04-14T14:41:21.007Z,66.60
2019-04-14T14:43:53.121Z,67.50
2019-04-14T14:46:26.681Z,68.10
2019-04-14T14:49:00.243Z,68.50
2019-04-14T14:51:33.889Z,67.70
2019-04-14T14:54:06.472Z,68.60
2019-04-14T14:56:38.614Z,69.20
2019-04-14T14:59:11.113Z,70.50
2019-04-14T15:01:43.247Z,69.80
2019-04-14T15:04:15.582Z,69.90
2019-04-14T15:06:47.622Z,70.40
2019-04-14T15:09:19.814Z,70.50
2019-04-14T15:11:51.934Z,71.10
2019-04-14T15:14:24.930Z,70.40
2019-04-14T15:16:57.057Z,70.70
2019-04-14T15:19:29.259Z,71.10
2019-04-14T15:22:01.414Z,71.80
2019-04-14T15:24:33.722Z,72.40
2019-04-14T15:27:05.853Z,71.20
2019-04-14T15:29:38.820Z,71.80
2019-04-14T15:32:10.767Z,71.70
2019-04-14T15:34:49.072Z,71.30
2019-04-14T15:37:21.070Z,70.80
2019-04-14T15:40:12.584Z,71.60
2019-04-14T15:42:44.670Z,70.00
2019-04-14T15:45:16.924Z,69.60
2019-04-14T15:47:49.542Z,69.60
2019-04-14T15:50:21.606Z,69.00
2019-04-14T15:52:53.820Z,68.90
2019-04-14T15:55:25.741Z,68.30
2019-04-14T15:57:57.362Z,68.30
2019-04-14T16:00:31.962Z,67.70
2019-04-14T16:03:04.911Z,68.00
2019-04-14T16:05:38.389Z,67.30
2019-04-14T16:08:11.546Z,66.40
2019-04-14T16:10:44.962Z,66.00
2019-04-14T16:13:16.554Z,66.10
2019-04-14T16:15:50.495Z,66.00
2019-04-14T16:18:23.420Z,66.00
2019-04-14T16:20:55.246Z,66.10
2019-04-14T16:23:27.502Z,66.50
2019-04-14T16:26:00.660Z,66.10
2019-04-14T16:28:33.800Z,66.10
2019-04-14T16:31:07.171Z,66.20
2019-04-14T16:33:40.312Z,66.10
2019-04-14T16:36:12.041Z,66.80
2019-04-14T16:38:45.454Z,67.30
2019-04-14T16:41:20.093Z,67.40
2019-04-14T16:43:51.970Z,67.10
2019-04-14T16:46:23.936Z,65.80
2019-04-14T16:48:55.772Z,65.60
2019-04-14T16:51:29.667Z,65.10
2019-04-14T16:54:03.544Z,64.90
2019-04-14T16:56:37.485Z,64.80
2019-04-14T16:59:10.475Z,64.60
2019-04-14T17:01:44.543Z,64.50
2019-04-14T17:04:16.624Z,64.70
2019-04-14T17:06:49.038Z,64.20
2019-04-14T17:09:20.979Z,64.00
2019-04-14T17:11:52.710Z,63.70
2019-04-14T17:14:26.078Z,63.80
2019-04-14T17:17:01.087Z,63.30
2019-04-14T17:19:34.307Z,63.50
2019-04-14T17:22:06.265Z,63.40
2019-04-14T17:24:39.602Z,62.90
2019-04-14T17:27:12.706Z,63.00
2019-04-14T17:29:46.242Z,62.60
2019-04-14T17:32:20.258Z,62.80
2019-04-14T17:34:51.796Z,63.20
2019-04-14T17:37:25.007Z,62.60
2019-04-14T17:39:57.039Z,62.50
2019-04-14T17:42:31.380Z,62.50
2019-04-14T17:45:03.406Z,62.20
2019-04-14T17:47:36.963Z,62.10
2019-04-14T17:50:12.508Z,62.20
2019-04-14T17:52:45.794Z,62.90
2019-04-14T17:55:19.612Z,61.90
2019-04-14T17:57:52.898Z,62.00
2019-04-14T18:00:26.413Z,61.40
2019-04-14T18:02:59.804Z,61.20
2019-04-14T18:05:33.378Z,61.90
2019-04-14T18:08:06.911Z,61.20
2019-04-14T18:10:40.993Z,61.10
2019-04-14T18:13:14.728Z,61.30
2019-04-14T18:15:48.125Z,61.10
2019-04-14T18:18:22.436Z,61.50
2019-04-14T18:20:56.467Z,61.20
2019-04-14T18:23:28.682Z,61.70
2019-04-14T18:26:00.781Z,62.00
2019-04-14T18:28:32.351Z,62.00
2019-04-14T18:31:05.650Z,61.70
2019-04-14T18:33:58.196Z,61.60
2019-04-14T18:36:32.407Z,61.80
2019-04-14T18:39:06.316Z,62.10
2019-04-14T18:41:39.715Z,62.30
2019-04-14T18:44:13.213Z,62.30
2019-04-14T18:46:46.615Z,62.10
2019-04-14T18:49:20.527Z,62.30
2019-04-14T18:51:53.929Z,62.30
2019-04-14T18:54:27.931Z,63.30
2019-04-14T18:57:01.235Z,62.50
2019-04-14T18:59:35.243Z,62.60
2019-04-14T19:02:07.199Z,62.50
2019-04-14T19:04:38.977Z,62.50
2019-04-14T19:07:11.171Z,62.60
2019-04-14T19:09:42.896Z,62.70
2019-04-14T19:12:16.407Z,62.80
2019-04-14T19:14:49.947Z,63.50
2019-04-14T19:17:23.165Z,62.40
2019-04-14T19:20:01.667Z,63.20
2019-04-14T19:22:31.033Z,63.40
2019-04-14T19:25:08.493Z,63.30
2019-04-14T19:27:36.580Z,63.30
2019-04-14T19:30:27.467Z,63.30
2019-04-14T19:33:00.480Z,63.70
2019-04-14T19:35:32.475Z,63.60
2019-04-14T19:38:04.147Z,64.20
2019-04-14T19:40:36.521Z,63.80
2019-04-14T19:43:08.636Z,64.10
2019-04-14T19:45:40.482Z,64.10
2019-04-14T19:48:12.525Z,64.10
2019-04-14T19:50:45.133Z,63.80
2019-04-14T19:53:17.065Z,64.60
2019-04-14T19:55:48.997Z,64.40
2019-04-14T19:58:21.194Z,64.10
2019-04-14T20:00:53.253Z,64.20
2019-04-14T20:03:25.075Z,64.20
2019-04-14T20:05:57.237Z,64.30
2019-04-14T20:08:29.236Z,64.30
2019-04-14T20:11:01.027Z,64.30
2019-04-14T20:13:34.491Z,64.60
2019-04-14T20:16:06.105Z,64.30
2019-04-14T20:18:39.624Z,64.10
2019-04-14T20:21:13.806Z,64.00
2019-04-14T20:23:47.382Z,64.90
2019-04-14T20:26:21.216Z,64.30
2019-04-14T20:28:52.945Z,63.70
2019-04-14T20:31:26.624Z,64.20
2019-04-14T20:33:58.829Z,64.00
2019-04-14T20:36:30.952Z,64.80
2019-04-14T20:39:03.653Z,63.90
2019-04-14T20:41:35.572Z,64.30
2019-04-14T20:44:07.754Z,65.00
2019-04-14T20:46:40.107Z,64.90
2019-04-14T20:49:12.215Z,65.00
2019-04-14T20:51:44.403Z,65.10
2019-04-14T20:54:16.752Z,65.20
2019-04-14T20:56:48.700Z,65.00
2019-04-14T20:59:20.891Z,66.00
2019-04-14T21:01:54.593Z,65.80
2019-04-14T21:04:30.961Z,65.80
2019-04-14T21:07:04.610Z,65.90
2019-04-14T21:09:38.231Z,66.80
2019-04-14T21:12:12.287Z,66.00
2019-04-14T21:14:45.512Z,65.80
2019-04-14T21:17:17.354Z,65.70
2019-04-14T21:19:50.781Z,65.80
2019-04-14T21:22:24.726Z,65.30
2019-04-14T21:24:58.285Z,65.60
2019-04-14T21:27:31.604Z,65.50
2019-04-14T21:30:05.558Z,65.20
2019-04-14T21:32:39.299Z,65.30
2019-04-14T21:35:13.328Z,64.90
2019-04-14T21:37:45.329Z,65.10
2019-04-14T21:40:18.937Z,65.10
2019-04-14T21:42:50.762Z,65.30
2019-04-14T21:45:26.044Z,65.70
2019-04-14T21:47:57.287Z,65.10
2019-04-14T21:50:48.319Z,65.10
2019-04-14T21:53:20.454Z,65.10
2019-04-14T21:55:52.560Z,65.10
2019-04-14T21:58:26.107Z,66.10
2019-04-14T22:01:02.940Z,65.80
2019-04-14T22:03:36.376Z,65.60
2019-04-14T22:06:09.766Z,65.30
2019-04-14T22:08:43.541Z,65.20
2019-04-14T22:11:16.873Z,64.70
2019-04-14T22:13:51.061Z,64.70
2019-04-14T22:16:22.490Z,64.90
2019-04-14T22:18:56.921Z,64.90
2019-04-14T22:21:28.787Z,64.60
2019-04-14T22:24:02.356Z,64.80
2019-04-14T22:26:34.276Z,65.20
2019-04-14T22:29:06.108Z,64.90
2019-04-14T22:31:38.202Z,65.40
2019-04-14T22:34:10.283Z,65.10
2019-04-14T22:36:42.521Z,65.30
2019-04-14T22:39:16.833Z,65.20
2019-04-14T22:41:48.968Z,65.50
2019-04-14T22:44:21.113Z,65.70
2019-04-14T22:46:53.159Z,66.10
2019-04-14T22:49:25.109Z,66.10
2019-04-14T22:51:57.109Z,66.30
2019-04-14T22:54:29.952Z,66.40
2019-04-14T22:57:02.124Z,66.60
2019-04-14T22:59:34.335Z,66.30
2019-04-14T23:02:07.939Z,66.10
2019-04-14T23:04:40.468Z,66.00
2019-04-14T23:07:13.642Z,65.90
2019-04-14T23:09:47.040Z,65.90
2019-04-14T23:12:20.255Z,65.70
2019-04-14T23:14:53.765Z,65.70
2019-04-14T23:17:27.271Z,66.10
2019-04-14T23:20:01.384Z,65.80
2019-04-14T23:22:34.478Z,66.00
2019-04-14T23:25:07.605Z,65.90
2019-04-14T23:27:39.700Z,65.90
2019-04-14T23:30:12.370Z,66.00
2019-04-14T23:32:44.831Z,66.20
2019-04-14T23:35:17.018Z,66.40
2019-04-14T23:37:49.350Z,66.50
2019-04-14T23:40:21.286Z,66.50
2019-04-14T23:42:53.906Z,66.60
2019-04-14T23:45:26.237Z,66.60
2019-04-14T23:48:17.729Z,66.90
2019-04-14T23:50:50.311Z,66.70
2019-04-14T23:53:22.273Z,67.10
2019-04-14T23:55:54.688Z,67.20
2019-04-14T23:58:27.173Z,67.00
